createdAt,value
2023-01-27T00:00:55.719Z,6.00
2023-01-27T00:03:23.681Z,6.00
2023-01-27T00:05:51.281Z,6.00
2023-01-27T00:08:18.682Z,6.00
2023-01-27T00:10:46.342Z,6.00
2023-01-27T00:13:27.070Z,6.40
2023-01-27T00:15:55.308Z,5.90
2023-01-27T00:18:23.879Z,6.00
2023-01-27T00:21:10.283Z,5.80
2023-01-27T00:23:56.464Z,5.80
2023-01-27T00:26:23.879Z,5.90
2023-01-27T00:28:53.768Z,5.90
2023-01-27T00:31:39.933Z,5.90
2023-01-27T00:34:10.383Z,5.90
2023-01-27T00:36:42.239Z,5.80
2023-01-27T00:39:11.767Z,6.10
2023-01-27T00:41:40.558Z,5.90
2023-01-27T00:44:12.831Z,5.90
2023-01-27T00:46:40.746Z,5.60
2023-01-27T00:49:08.989Z,5.90
2023-01-27T00:51:36.969Z,5.90
2023-01-27T00:54:05.163Z,5.90
2023-01-27T00:56:32.933Z,5.80
2023-01-27T00:59:00.640Z,5.80
2023-01-27T01:01:28.651Z,5.90
2023-01-27T01:03:56.556Z,5.90
2023-01-27T01:06:24.070Z,5.90
2023-01-27T01:08:52.508Z,5.90
2023-01-27T01:11:21.483Z,5.90
2023-01-27T01:13:49.166Z,5.90
2023-01-27T01:16:19.700Z,5.90
2023-01-27T01:18:47.703Z,5.90
2023-01-27T01:21:16.178Z,5.80
2023-01-27T01:23:44.821Z,5.90
2023-01-27T01:26:14.561Z,5.80
2023-01-27T01:28:43.502Z,5.80
2023-01-27T01:31:19.404Z,5.80
2023-01-27T01:33:48.271Z,5.80
2023-01-27T01:36:19.041Z,5.80
2023-01-27T01:38:46.975Z,5.80
2023-01-27T01:41:19.830Z,5.70
2023-01-27T01:43:48.320Z,5.70
2023-01-27T01:46:16.208Z,5.80
2023-01-27T01:48:47.457Z,5.80
2023-01-27T01:51:22.819Z,5.80
2023-01-27T01:53:52.840Z,4.90
2023-01-27T01:56:28.877Z,5.80
2023-01-27T01:59:00.041Z,5.80
2023-01-27T02:01:27.670Z,5.70
2023-01-27T02:03:59.195Z,5.70
2023-01-27T02:06:26.741Z,5.80
2023-01-27T02:08:54.627Z,5.70
2023-01-27T02:11:22.003Z,5.70
2023-01-27T02:13:49.649Z,6.80
2023-01-27T02:16:17.155Z,6.00
2023-01-27T02:18:44.836Z,5.70
2023-01-27T02:21:12.208Z,5.30
2023-01-27T02:23:57.090Z,5.80
2023-01-27T02:26:32.037Z,5.70
2023-01-27T02:29:05.951Z,5.70
2023-01-27T02:31:33.799Z,5.70
2023-01-27T02:34:07.895Z,5.80
2023-01-27T02:36:41.287Z,5.80
2023-01-27T02:39:13.992Z,5.70
2023-01-27T02:41:44.934Z,5.70
2023-01-27T02:44:12.501Z,7.00
2023-01-27T02:46:39.859Z,5.70
2023-01-27T02:49:07.768Z,5.70
2023-01-27T02:51:35.270Z,6.30
2023-01-27T02:54:02.612Z,5.70
2023-01-27T02:56:29.872Z,5.80
2023-01-27T02:58:57.473Z,5.70
2023-01-27T03:01:25.645Z,5.80
2023-01-27T03:03:53.022Z,5.70
2023-01-27T03:06:20.634Z,5.60
2023-01-27T03:08:48.159Z,5.70
2023-01-27T03:11:35.715Z,5.70
2023-01-27T03:14:03.051Z,5.70
2023-01-27T03:16:49.290Z,5.70
2023-01-27T03:19:16.675Z,5.70
2023-01-27T03:21:45.433Z,5.60
2023-01-27T03:24:12.882Z,5.60
2023-01-27T03:26:40.248Z,5.60
2023-01-27T03:29:26.115Z,5.70
2023-01-27T03:31:53.559Z,5.70
2023-01-27T03:34:20.984Z,6.70
2023-01-27T03:37:06.789Z,5.60
2023-01-27T03:39:52.980Z,5.70
2023-01-27T03:42:38.851Z,5.70
2023-01-27T03:45:25.335Z,5.70
2023-01-27T03:47:52.639Z,5.70
2023-01-27T03:50:37.600Z,5.70
2023-01-27T03:53:06.034Z,5.70
2023-01-27T03:55:35.438Z,5.70
2023-01-27T03:58:19.286Z,5.70
2023-01-27T04:00:50.063Z,5.80
2023-01-27T04:03:36.765Z,5.60
2023-01-27T04:06:28.114Z,5.50
2023-01-27T04:08:55.830Z,5.50
2023-01-27T04:11:42.114Z,5.50
2023-01-27T04:14:10.869Z,5.50
2023-01-27T04:16:38.430Z,5.50
2023-01-27T04:19:07.936Z,5.50
2023-01-27T04:21:35.360Z,5.50
2023-01-27T04:24:04.380Z,5.40
2023-01-27T04:26:34.954Z,5.40
2023-01-27T04:29:03.481Z,5.40
2023-01-27T04:31:32.714Z,5.40
2023-01-27T04:34:00.310Z,5.40
2023-01-27T04:36:27.648Z,5.50
2023-01-27T04:38:55.195Z,5.50
2023-01-27T04:41:22.474Z,5.50
2023-01-27T04:43:49.820Z,5.50
2023-01-27T04:46:17.164Z,5.50
2023-01-27T04:48:44.450Z,5.60
2023-01-27T04:51:11.991Z,5.60
2023-01-27T04:53:39.272Z,4.90
2023-01-27T04:56:16.801Z,6.90
2023-01-27T04:58:44.033Z,5.60
2023-01-27T05:01:11.297Z,5.60
2023-01-27T05:03:38.588Z,5.50
2023-01-27T05:06:06.147Z,6.10
2023-01-27T05:08:33.621Z,5.60
2023-01-27T05:11:00.898Z,5.60
2023-01-27T05:13:28.235Z,5.60
2023-01-27T05:16:11.742Z,5.60
2023-01-27T05:18:39.865Z,4.50
2023-01-27T05:21:08.603Z,5.60
2023-01-27T05:23:35.910Z,5.60
2023-01-27T05:26:15.561Z,5.60
2023-01-27T05:28:45.090Z,5.60
2023-01-27T05:31:24.355Z,5.50
2023-01-27T05:33:53.514Z,5.40
2023-01-27T05:36:22.975Z,5.60
2023-01-27T05:38:50.712Z,5.60
2023-01-27T05:41:20.032Z,5.60
2023-01-27T05:43:51.542Z,5.60
2023-01-27T05:46:27.472Z,5.60
2023-01-27T05:49:05.440Z,5.60
2023-01-27T05:51:36.902Z,5.60
2023-01-27T05:54:04.457Z,5.60
2023-01-27T05:56:32.018Z,5.50
2023-01-27T05:58:59.504Z,5.50
2023-01-27T06:01:31.932Z,5.60
2023-01-27T06:03:59.944Z,5.60
2023-01-27T06:06:29.077Z,5.50
2023-01-27T06:08:56.464Z,5.50
2023-01-27T06:11:24.949Z,5.60
2023-01-27T06:13:53.623Z,4.10
2023-01-27T06:16:22.427Z,5.60
2023-01-27T06:18:49.967Z,5.50
2023-01-27T06:21:17.909Z,5.60
2023-01-27T06:23:45.229Z,5.60
2023-01-27T06:26:16.975Z,5.50
2023-01-27T06:28:44.774Z,5.60
2023-01-27T06:31:14.757Z,5.60
2023-01-27T06:33:42.215Z,5.60
2023-01-27T06:36:12.729Z,5.60
2023-01-27T06:38:40.730Z,5.70
2023-01-27T06:41:08.464Z,5.50
2023-01-27T06:43:35.790Z,5.60
2023-01-27T06:46:05.741Z,5.80
2023-01-27T06:48:33.958Z,5.70
2023-01-27T06:51:01.391Z,5.60
2023-01-27T06:53:28.921Z,5.60
2023-01-27T06:55:58.257Z,5.60
2023-01-27T06:58:26.385Z,5.60
2023-01-27T07:00:53.873Z,5.60
2023-01-27T07:03:21.295Z,5.70
2023-01-27T07:05:48.725Z,6.10
2023-01-27T07:08:16.637Z,5.60
2023-01-27T07:10:43.978Z,4.20
2023-01-27T07:13:13.596Z,5.60
2023-01-27T07:15:41.067Z,5.60
2023-01-27T07:18:09.595Z,5.60
2023-01-27T07:20:37.013Z,5.60
2023-01-27T07:23:05.811Z,5.70
2023-01-27T07:25:35.105Z,6.00
2023-01-27T07:28:03.879Z,6.80
2023-01-27T07:30:32.013Z,5.60
2023-01-27T07:33:11.363Z,6.40
2023-01-27T07:35:39.626Z,5.60
2023-01-27T07:38:07.596Z,5.70
2023-01-27T07:40:35.930Z,5.70
2023-01-27T07:43:03.625Z,5.90
2023-01-27T07:45:31.306Z,5.70
2023-01-27T07:48:08.735Z,5.70
2023-01-27T07:50:36.757Z,5.70
2023-01-27T07:53:05.541Z,5.70
2023-01-27T07:55:33.767Z,5.70
2023-01-27T07:58:01.574Z,5.80
2023-01-27T08:00:30.281Z,5.70
2023-01-27T08:02:58.915Z,6.80
2023-01-27T08:05:26.840Z,5.70
2023-01-27T08:07:57.730Z,5.70
2023-01-27T08:10:26.425Z,5.70
2023-01-27T08:12:53.807Z,5.80
2023-01-27T08:15:21.315Z,5.80
2023-01-27T08:17:54.543Z,5.80
2023-01-27T08:20:22.956Z,5.80
2023-01-27T08:22:50.199Z,5.80
2023-01-27T08:25:17.693Z,5.90
2023-01-27T08:27:45.099Z,6.00
2023-01-27T08:30:12.968Z,6.00
2023-01-27T08:32:40.476Z,6.70
2023-01-27T08:35:08.155Z,6.10
2023-01-27T08:37:35.445Z,6.10
2023-01-27T08:40:03.855Z,6.20
2023-01-27T08:42:31.315Z,6.20
2023-01-27T08:45:00.460Z,6.60
2023-01-27T08:47:27.825Z,6.20
2023-01-27T08:49:55.101Z,6.50
2023-01-27T08:52:23.481Z,6.30
2023-01-27T08:54:50.795Z,6.30
2023-01-27T08:57:18.250Z,6.40
2023-01-27T08:59:46.357Z,6.40
2023-01-27T09:02:14.217Z,6.40
2023-01-27T09:04:45.248Z,6.40
2023-01-27T09:07:12.659Z,6.20
2023-01-27T09:09:39.958Z,6.30
2023-01-27T09:12:07.454Z,6.30
2023-01-27T09:14:34.772Z,6.30
2023-01-27T09:17:02.037Z,6.20
2023-01-27T09:19:29.398Z,6.20
2023-01-27T09:21:56.795Z,6.20
2023-01-27T09:24:24.250Z,6.20
2023-01-27T09:26:51.643Z,5.80
2023-01-27T09:29:19.020Z,6.20
2023-01-27T09:31:46.517Z,6.10
2023-01-27T09:34:13.856Z,6.10
2023-01-27T09:36:45.877Z,6.10
2023-01-27T09:39:15.162Z,6.10
2023-01-27T09:42:04.610Z,6.10
2023-01-27T09:44:49.969Z,6.20
2023-01-27T09:47:38.200Z,6.20
2023-01-27T09:50:43.547Z,6.30
2023-01-27T09:53:21.432Z,6.30
2023-01-27T09:56:20.500Z,6.30
2023-01-27T09:59:07.329Z,6.40
2023-01-27T10:01:48.796Z,6.40
2023-01-27T10:04:21.588Z,6.40
2023-01-27T10:07:03.795Z,6.50
2023-01-27T10:09:36.276Z,6.50
2023-01-27T10:12:10.926Z,6.60
2023-01-27T10:14:38.120Z,6.60
2023-01-27T10:17:18.712Z,6.60
2023-01-27T10:20:19.023Z,6.60
2023-01-27T10:23:11.608Z,6.70
2023-01-27T10:25:51.075Z,6.80
2023-01-27T10:28:23.695Z,6.80
2023-01-27T10:31:14.616Z,6.80
2023-01-27T10:33:53.919Z,6.80
2023-01-27T10:36:42.812Z,6.80
2023-01-27T10:39:36.204Z,6.80
2023-01-27T10:42:17.323Z,7.30
2023-01-27T10:44:50.490Z,6.50
2023-01-27T10:47:36.553Z,6.80
2023-01-27T10:50:11.487Z,6.90
2023-01-27T10:52:55.230Z,6.90
2023-01-27T10:55:49.132Z,7.00
2023-01-27T10:58:44.839Z,6.90
2023-01-27T11:01:21.251Z,6.90
2023-01-27T11:04:10.257Z,6.90
2023-01-27T11:06:41.656Z,7.00
2023-01-27T11:09:14.683Z,7.10
2023-01-27T11:11:44.767Z,7.00
2023-01-27T11:14:26.846Z,7.00
2023-01-27T11:17:03.139Z,7.10
2023-01-27T11:19:30.466Z,7.10
2023-01-27T11:22:07.669Z,6.60
2023-01-27T11:24:47.340Z,7.30
2023-01-27T11:27:55.670Z,7.30
2023-01-27T11:30:39.997Z,7.20
2023-01-27T11:33:29.955Z,7.20
2023-01-27T11:35:57.376Z,7.30
2023-01-27T11:38:24.762Z,7.10
2023-01-27T11:40:54.271Z,7.20
2023-01-27T11:43:25.974Z,7.20
2023-01-27T11:46:01.571Z,7.20
2023-01-27T11:48:44.077Z,7.70
2023-01-27T11:51:26.022Z,7.20
2023-01-27T11:54:18.370Z,7.20
2023-01-27T11:56:48.544Z,7.20
2023-01-27T11:59:27.803Z,7.30
2023-01-27T12:02:27.768Z,7.30
2023-01-27T12:05:08.018Z,7.40
2023-01-27T12:08:04.763Z,7.40
2023-01-27T12:10:35.135Z,7.50
2023-01-27T12:13:10.238Z,7.60
2023-01-27T12:15:46.799Z,7.60
2023-01-27T12:18:16.248Z,6.60
2023-01-27T12:20:58.469Z,7.70
2023-01-27T12:23:37.176Z,7.70
2023-01-27T12:26:11.066Z,7.60
2023-01-27T12:28:41.591Z,8.70
2023-01-27T12:31:15.835Z,7.70
2023-01-27T12:33:51.445Z,7.80
2023-01-27T12:36:24.190Z,7.70
2023-01-27T12:38:58.159Z,7.80
2023-01-27T12:41:31.587Z,8.50
2023-01-27T12:44:19.984Z,7.80
2023-01-27T12:47:01.424Z,7.90
2023-01-27T12:49:37.958Z,7.80
2023-01-27T12:52:08.642Z,7.90
2023-01-27T12:54:36.355Z,7.90
2023-01-27T12:57:07.144Z,8.00
2023-01-27T12:59:35.843Z,8.00
2023-01-27T13:02:22.827Z,8.00
2023-01-27T13:04:57.026Z,8.00
2023-01-27T13:07:29.734Z,8.00
2023-01-27T13:10:02.760Z,7.90
2023-01-27T13:12:36.758Z,8.60
2023-01-27T13:15:14.291Z,7.80
2023-01-27T13:18:11.662Z,8.20
2023-01-27T13:20:43.224Z,7.80
2023-01-27T13:23:25.292Z,7.90
2023-01-27T13:25:57.863Z,7.90
2023-01-27T13:28:46.321Z,7.90
2023-01-27T13:31:35.301Z,7.90
2023-01-27T13:34:23.509Z,8.30
2023-01-27T13:37:05.741Z,7.90
2023-01-27T13:39:48.809Z,7.90
2023-01-27T13:42:33.484Z,8.00
2023-01-27T13:45:06.018Z,8.00
2023-01-27T13:47:53.694Z,8.00
2023-01-27T13:50:35.833Z,8.00
2023-01-27T13:53:04.598Z,8.00
2023-01-27T13:56:09.293Z,8.00
2023-01-27T13:58:48.540Z,8.00
2023-01-27T14:01:26.047Z,8.00
2023-01-27T14:04:31.682Z,8.00
2023-01-27T14:07:23.094Z,8.00
2023-01-27T14:10:15.986Z,7.90
2023-01-27T14:12:46.354Z,7.80
2023-01-27T14:15:35.617Z,7.80
2023-01-27T14:18:17.056Z,7.80
2023-01-27T14:20:59.395Z,7.60
2023-01-27T14:23:54.615Z,7.70
2023-01-27T14:26:36.868Z,7.80
2023-01-27T14:29:07.235Z,7.80
2023-01-27T14:31:46.607Z,7.90
2023-01-27T14:34:19.813Z,7.90
2023-01-27T14:36:57.641Z,8.20
2023-01-27T14:39:42.594Z,8.00
2023-01-27T14:42:27.823Z,8.00
2023-01-27T14:45:17.480Z,8.40
2023-01-27T14:48:13.260Z,8.00
2023-01-27T14:50:40.524Z,8.00
2023-01-27T14:53:22.809Z,7.90
2023-01-27T14:56:08.973Z,7.90
2023-01-27T14:58:43.688Z,7.70
2023-01-27T15:01:40.091Z,7.80
2023-01-27T15:04:42.154Z,7.80
2023-01-27T15:07:44.434Z,7.80
2023-01-27T15:10:28.513Z,7.80
2023-01-27T15:13:04.359Z,7.70
2023-01-27T15:15:51.659Z,7.80
2023-01-27T15:18:55.992Z,7.50
2023-01-27T15:21:55.810Z,7.80
2023-01-27T15:24:34.389Z,7.70
2023-01-27T15:27:02.837Z,7.80
2023-01-27T15:29:31.206Z,7.80
2023-01-27T15:32:37.540Z,7.70
2023-01-27T15:35:30.114Z,7.60
2023-01-27T15:38:17.320Z,7.80
2023-01-27T15:41:04.929Z,7.60
2023-01-27T15:43:33.318Z,7.60
2023-01-27T15:46:30.291Z,7.60
2023-01-27T15:49:00.752Z,7.60
2023-01-27T15:51:31.098Z,7.50
2023-01-27T15:54:00.046Z,7.50
2023-01-27T15:56:42.492Z,7.50
2023-01-27T15:59:17.747Z,7.50
2023-01-27T16:01:48.632Z,7.50
2023-01-27T16:04:21.841Z,7.50
2023-01-27T16:07:02.295Z,7.50
2023-01-27T16:09:59.983Z,7.50
2023-01-27T16:12:41.622Z,7.50
2023-01-27T16:15:35.364Z,7.10
2023-01-27T16:18:22.632Z,7.40
2023-01-27T16:21:01.400Z,7.40
2023-01-27T16:23:56.349Z,7.40
2023-01-27T16:26:35.636Z,7.40
2023-01-27T16:29:32.819Z,7.20
2023-01-27T16:32:05.566Z,7.30
2023-01-27T16:34:55.596Z,7.20
2023-01-27T16:37:29.411Z,7.20
2023-01-27T16:40:02.249Z,7.20
2023-01-27T16:43:13.463Z,7.20
2023-01-27T16:45:44.874Z,6.30
2023-01-27T16:48:22.374Z,7.10
2023-01-27T16:50:52.196Z,7.10
2023-01-27T16:53:22.945Z,7.10
2023-01-27T16:56:07.667Z,7.00
2023-01-27T16:58:46.012Z,7.00
2023-01-27T17:01:28.697Z,6.80
2023-01-27T17:04:07.689Z,7.00
2023-01-27T17:06:45.657Z,7.00
2023-01-27T17:09:21.474Z,7.00
2023-01-27T17:11:49.213Z,7.00
2023-01-27T17:14:29.872Z,7.00
2023-01-27T17:17:03.875Z,6.90
2023-01-27T17:19:37.137Z,6.90
2023-01-27T17:22:18.489Z,7.50
2023-01-27T17:24:53.232Z,6.90
2023-01-27T17:27:31.325Z,6.90
2023-01-27T17:30:26.797Z,6.80
2023-01-27T17:32:58.440Z,6.80
2023-01-27T17:35:33.035Z,6.80
2023-01-27T17:38:47.772Z,6.80
2023-01-27T17:41:26.835Z,6.80
2023-01-27T17:43:58.945Z,6.70
2023-01-27T17:46:31.989Z,6.70
2023-01-27T17:49:11.849Z,6.60
2023-01-27T17:51:57.792Z,6.60
2023-01-27T17:54:27.088Z,6.60
2023-01-27T17:57:21.210Z,6.60
2023-01-27T18:00:09.779Z,8.00
2023-01-27T18:02:44.526Z,6.80
2023-01-27T18:05:20.743Z,6.60
2023-01-27T18:07:48.866Z,6.60
2023-01-27T18:10:24.516Z,6.70
2023-01-27T18:12:52.737Z,6.70
2023-01-27T18:15:36.559Z,6.70
2023-01-27T18:18:08.138Z,6.70
2023-01-27T18:20:36.302Z,6.70
2023-01-27T18:23:06.712Z,6.70
2023-01-27T18:25:34.126Z,6.70
2023-01-27T18:28:01.647Z,6.70
2023-01-27T18:30:28.979Z,6.60
2023-01-27T18:33:03.486Z,5.60
2023-01-27T18:35:33.598Z,6.60
2023-01-27T18:38:03.527Z,6.50
2023-01-27T18:40:32.693Z,6.50
2023-01-27T18:43:00.943Z,6.50
2023-01-27T18:45:28.785Z,6.50
2023-01-27T18:47:57.174Z,6.80
2023-01-27T18:50:26.035Z,6.50
2023-01-27T18:52:54.037Z,6.50
2023-01-27T18:55:26.934Z,6.50
2023-01-27T18:57:56.823Z,6.60
2023-01-27T19:00:31.319Z,6.40
2023-01-27T19:03:01.374Z,6.40
2023-01-27T19:05:34.359Z,6.40
2023-01-27T19:08:02.915Z,6.30
2023-01-27T19:10:33.002Z,6.30
2023-01-27T19:13:02.658Z,6.30
2023-01-27T19:15:39.831Z,6.30
2023-01-27T19:18:21.482Z,6.20
2023-01-27T19:20:49.119Z,6.20
2023-01-27T19:23:19.228Z,6.80
2023-01-27T19:25:48.570Z,5.00
2023-01-27T19:28:31.824Z,6.10
2023-01-27T19:31:00.166Z,6.10
2023-01-27T19:33:29.137Z,6.00
2023-01-27T19:36:00.127Z,6.10
2023-01-27T19:38:29.536Z,6.00
2023-01-27T19:40:56.926Z,6.00
2023-01-27T19:43:24.301Z,6.00
2023-01-27T19:45:52.265Z,5.90
2023-01-27T19:48:22.740Z,5.90
2023-01-27T19:50:52.261Z,5.60
2023-01-27T19:53:20.320Z,5.90
2023-01-27T19:55:48.541Z,5.90
2023-01-27T19:58:22.445Z,5.80
2023-01-27T20:00:49.768Z,7.20
2023-01-27T20:03:17.296Z,5.80
2023-01-27T20:05:44.827Z,5.70
2023-01-27T20:08:16.072Z,5.80
2023-01-27T20:10:44.389Z,5.80
2023-01-27T20:13:19.595Z,5.80
2023-01-27T20:15:47.432Z,5.80
2023-01-27T20:18:16.589Z,5.70
2023-01-27T20:20:44.599Z,6.30
2023-01-27T20:23:15.940Z,5.70
2023-01-27T20:25:43.501Z,5.70
2023-01-27T20:28:12.205Z,5.70
2023-01-27T20:30:41.466Z,5.60
2023-01-27T20:33:10.025Z,5.60
2023-01-27T20:35:38.054Z,5.50
2023-01-27T20:38:05.341Z,5.50
2023-01-27T20:40:32.646Z,5.50
2023-01-27T20:43:01.995Z,5.40
2023-01-27T20:45:29.349Z,5.40
2023-01-27T20:47:56.694Z,5.10
2023-01-27T20:50:26.156Z,5.30
2023-01-27T20:52:53.715Z,5.20
2023-01-27T20:55:21.046Z,5.30
2023-01-27T20:57:49.830Z,5.20
2023-01-27T21:00:19.527Z,5.20
2023-01-27T21:02:47.605Z,5.90
2023-01-27T21:05:15.953Z,5.20
2023-01-27T21:07:43.506Z,5.30
2023-01-27T21:10:11.626Z,5.30
2023-01-27T21:12:38.952Z,5.30
2023-01-27T21:15:09.937Z,5.20
2023-01-27T21:17:37.708Z,5.10
2023-01-27T21:20:05.980Z,5.40
2023-01-27T21:22:34.627Z,5.10
2023-01-27T21:25:02.129Z,5.20
2023-01-27T21:27:29.546Z,5.10
2023-01-27T21:29:56.945Z,5.10
2023-01-27T21:32:24.277Z,5.10
2023-01-27T21:34:51.604Z,4.90
2023-01-27T21:37:18.998Z,5.10
2023-01-27T21:39:46.283Z,4.90
2023-01-27T21:42:17.028Z,5.10
2023-01-27T21:45:02.962Z,5.00
2023-01-27T21:47:30.390Z,5.00
2023-01-27T21:50:00.619Z,5.00
2023-01-27T21:52:39.576Z,5.00
2023-01-27T21:55:09.739Z,4.90
2023-01-27T21:57:37.700Z,5.30
2023-01-27T22:00:06.698Z,4.90
2023-01-27T22:02:33.994Z,4.90
2023-01-27T22:05:01.346Z,4.80
2023-01-27T22:07:30.539Z,4.90
2023-01-27T22:09:57.844Z,4.90
2023-01-27T22:12:25.316Z,4.80
2023-01-27T22:14:52.629Z,4.80
2023-01-27T22:17:20.162Z,5.00
2023-01-27T22:19:47.612Z,4.60
2023-01-27T22:22:14.927Z,4.80
2023-01-27T22:24:42.262Z,4.80
2023-01-27T22:27:09.747Z,4.90
2023-01-27T22:29:37.146Z,4.90
2023-01-27T22:32:04.548Z,4.80
2023-01-27T22:34:32.200Z,4.80
2023-01-27T22:36:59.556Z,4.80
2023-01-27T22:39:26.916Z,4.80
2023-01-27T22:41:54.243Z,4.70
2023-01-27T22:44:21.619Z,4.80
2023-01-27T22:46:49.647Z,4.50
2023-01-27T22:49:17.297Z,4.80
2023-01-27T22:51:46.215Z,4.80
2023-01-27T22:54:15.552Z,4.80
2023-01-27T22:56:43.372Z,4.70
2023-01-27T22:59:13.766Z,4.90
2023-01-27T23:01:41.860Z,4.80
2023-01-27T23:04:11.813Z,4.80
2023-01-27T23:06:39.069Z,4.80
2023-01-27T23:09:06.376Z,4.80
2023-01-27T23:11:33.885Z,4.80
2023-01-27T23:14:01.638Z,4.10
2023-01-27T23:16:29.094Z,4.80
2023-01-27T23:18:56.435Z,4.80
2023-01-27T23:21:23.722Z,4.80
2023-01-27T23:23:51.147Z,4.80
2023-01-27T23:26:18.602Z,5.70
2023-01-27T23:28:45.886Z,4.80
2023-01-27T23:31:14.119Z,5.10
2023-01-27T23:33:42.548Z,4.70
2023-01-27T23:36:10.985Z,4.80
2023-01-27T23:38:38.812Z,4.80
2023-01-27T23:41:18.393Z,4.80
2023-01-27T23:43:51.369Z,4.80
2023-01-27T23:46:19.595Z,4.70
2023-01-27T23:48:54.804Z,4.70
2023-01-27T23:51:23.162Z,4.80
2023-01-27T23:53:51.226Z,4.70
2023-01-27T23:56:20.424Z,4.70
2023-01-27T23:58:47.908Z,5.00
